sensor_id;sensor_type;location;lat;lon;timestamp;pressure;altitude;pressure_sealevel;temperature;humidity
81704;BME280;71117;52.352;4.808;2024-02-21T00:01:17;102219.28;;;9.65;91.82
81704;BME280;71117;52.352;4.808;2024-02-21T00:03:42;102210.44;;;9.63;91.93
81704;BME280;71117;52.352;4.808;2024-02-21T00:06:08;102203.16;;;9.57;92.22
81704;BME280;71117;52.352;4.808;2024-02-21T00:08:33;102200.50;;;9.57;92.33
81704;BME280;71117;52.352;4.808;2024-02-21T00:10:58;102186.38;;;9.55;92.88
81704;BME280;71117;52.352;4.808;2024-02-21T00:13:26;102183.72;;;9.55;92.42
81704;BME280;71117;52.352;4.808;2024-02-21T00:15:51;102189.84;;;9.54;92.54
81704;BME280;71117;52.352;4.808;2024-02-21T00:18:17;102182.75;;;9.53;92.89
81704;BME280;71117;52.352;4.808;2024-02-21T00:20:42;102188.81;;;9.50;92.97
81704;BME280;71117;52.352;4.808;2024-02-21T00:23:07;102195.75;;;9.48;92.58
81704;BME280;71117;52.352;4.808;2024-02-21T00:25:33;102191.19;;;9.44;92.37
81704;BME280;71117;52.352;4.808;2024-02-21T00:27:58;102184.47;;;9.52;92.09
81704;BME280;71117;52.352;4.808;2024-02-21T00:30:23;102186.09;;;9.49;92.64
81704;BME280;71117;52.352;4.808;2024-02-21T00:32:49;102192.19;;;9.48;92.07
81704;BME280;71117;52.352;4.808;2024-02-21T00:35:14;102180.38;;;9.38;92.51
81704;BME280;71117;52.352;4.808;2024-02-21T00:37:39;102185.91;;;9.25;93.13
81704;BME280;71117;52.352;4.808;2024-02-21T00:40:05;102186.91;;;9.27;93.00
81704;BME280;71117;52.352;4.808;2024-02-21T00:42:31;102179.25;;;9.33;92.29
81704;BME280;71117;52.352;4.808;2024-02-21T00:44:56;102176.84;;;9.38;91.85
81704;BME280;71117;52.352;4.808;2024-02-21T00:47:22;102174.56;;;9.47;91.90
81704;BME280;71117;52.352;4.808;2024-02-21T00:49:47;102187.00;;;9.49;91.33
81704;BME280;71117;52.352;4.808;2024-02-21T00:52:12;102173.69;;;9.46;91.68
81704;BME280;71117;52.352;4.808;2024-02-21T00:54:38;102185.97;;;9.46;92.10
81704;BME280;71117;52.352;4.808;2024-02-21T00:57:03;102178.19;;;9.49;92.21
81704;BME280;71117;52.352;4.808;2024-02-21T00:59:28;102162.44;;;9.50;92.35
81704;BME280;71117;52.352;4.808;2024-02-21T01:01:54;102159.75;;;9.49;92.00
81704;BME280;71117;52.352;4.808;2024-02-21T01:04:19;102168.59;;;9.51;92.41
81704;BME280;71117;52.352;4.808;2024-02-21T01:06:44;102157.22;;;9.52;92.84
81704;BME280;71117;52.352;4.808;2024-02-21T01:09:11;102170.28;;;9.49;93.33
81704;BME280;71117;52.352;4.808;2024-02-21T01:11:36;102168.56;;;9.49;93.22
81704;BME280;71117;52.352;4.808;2024-02-21T01:14:02;102154.59;;;9.52;93.78
81704;BME280;71117;52.352;4.808;2024-02-21T01:16:27;102153.56;;;9.48;93.52
81704;BME280;71117;52.352;4.808;2024-02-21T01:18:52;102140.66;;;9.54;93.71
81704;BME280;71117;52.352;4.808;2024-02-21T01:21:18;102143.84;;;9.47;93.42
81704;BME280;71117;52.352;4.808;2024-02-21T01:23:43;102134.19;;;9.48;93.70
81704;BME280;71117;52.352;4.808;2024-02-21T01:26:08;102137.56;;;9.44;94.53
81704;BME280;71117;52.352;4.808;2024-02-21T01:28:34;102128.66;;;9.42;95.00
81704;BME280;71117;52.352;4.808;2024-02-21T01:31:00;102129.38;;;9.38;95.19
81704;BME280;71117;52.352;4.808;2024-02-21T01:33:26;102123.13;;;9.36;95.21
81704;BME280;71117;52.352;4.808;2024-02-21T01:35:51;102118.06;;;9.40;95.47
81704;BME280;71117;52.352;4.808;2024-02-21T01:38:17;102122.56;;;9.43;95.24
81704;BME280;71117;52.352;4.808;2024-02-21T01:40:42;102111.00;;;9.39;95.63
81704;BME280;71117;52.352;4.808;2024-02-21T01:43:19;102109.19;;;9.38;95.24
81704;BME280;71117;52.352;4.808;2024-02-21T01:45:55;102110.16;;;9.40;95.35
81704;BME280;71117;52.352;4.808;2024-02-21T01:48:22;102101.28;;;9.38;95.57
81704;BME280;71117;52.352;4.808;2024-02-21T01:50:49;102103.06;;;9.39;95.24
81704;BME280;71117;52.352;4.808;2024-02-21T01:53:23;102100.56;;;9.42;95.25
81704;BME280;71117;52.352;4.808;2024-02-21T01:55:50;102108.47;;;9.42;95.20
81704;BME280;71117;52.352;4.808;2024-02-21T01:58:16;102105.81;;;9.42;95.46
81704;BME280;71117;52.352;4.808;2024-02-21T02:00:42;102098.91;;;9.44;95.20
81704;BME280;71117;52.352;4.808;2024-02-21T02:03:12;102096.38;;;9.47;95.30
81704;BME280;71117;52.352;4.808;2024-02-21T02:05:48;102091.09;;;9.47;94.66
81704;BME280;71117;52.352;4.808;2024-02-21T02:08:18;102099.00;;;9.47;95.68
81704;BME280;71117;52.352;4.808;2024-02-21T02:10:44;102081.34;;;9.45;95.33
81704;BME280;71117;52.352;4.808;2024-02-21T02:13:11;102083.19;;;9.47;95.20
81704;BME280;71117;52.352;4.808;2024-02-21T02:15:44;102082.38;;;9.48;95.30
81704;BME280;71117;52.352;4.808;2024-02-21T02:18:10;102080.56;;;9.47;95.11
81704;BME280;71117;52.352;4.808;2024-02-21T02:20:36;102088.56;;;9.49;95.04
81704;BME280;71117;52.352;4.808;2024-02-21T02:23:10;102074.66;;;9.53;94.72
81704;BME280;71117;52.352;4.808;2024-02-21T02:25:39;102074.38;;;9.47;95.56
81704;BME280;71117;52.352;4.808;2024-02-21T02:28:07;102074.19;;;9.42;95.17
81704;BME280;71117;52.352;4.808;2024-02-21T02:30:34;102084.63;;;9.39;95.28
81704;BME280;71117;52.352;4.808;2024-02-21T02:33:05;102073.44;;;9.45;95.35
81704;BME280;71117;52.352;4.808;2024-02-21T02:35:31;102069.91;;;9.44;95.56
81704;BME280;71117;52.352;4.808;2024-02-21T02:37:57;102067.28;;;9.44;94.89
81704;BME280;71117;52.352;4.808;2024-02-21T02:40:26;102063.00;;;9.48;94.73
81704;BME280;71117;52.352;4.808;2024-02-21T02:42:51;102053.25;;;9.45;95.53
81704;BME280;71117;52.352;4.808;2024-02-21T02:45:21;102049.75;;;9.46;95.40
81704;BME280;71117;52.352;4.808;2024-02-21T02:47:47;102046.28;;;9.47;95.16
81704;BME280;71117;52.352;4.808;2024-02-21T02:50:13;102056.84;;;9.47;95.29
81704;BME280;71117;52.352;4.808;2024-02-21T02:52:38;102047.19;;;9.48;95.11
81704;BME280;71117;52.352;4.808;2024-02-21T02:55:04;102046.47;;;9.52;94.75
81704;BME280;71117;52.352;4.808;2024-02-21T02:57:30;102046.47;;;9.52;94.93
81704;BME280;71117;52.352;4.808;2024-02-21T02:59:55;102037.44;;;9.45;95.29
81704;BME280;71117;52.352;4.808;2024-02-21T03:02:20;102045.19;;;9.42;95.08
81704;BME280;71117;52.352;4.808;2024-02-21T03:04:46;102032.16;;;9.45;95.75
81704;BME280;71117;52.352;4.808;2024-02-21T03:07:11;102020.66;;;9.43;95.95
81704;BME280;71117;52.352;4.808;2024-02-21T03:09:40;102022.50;;;9.46;95.25
81704;BME280;71117;52.352;4.808;2024-02-21T03:12:06;102027.53;;;9.40;96.11
81704;BME280;71117;52.352;4.808;2024-02-21T03:14:34;102008.94;;;9.37;95.74
81704;BME280;71117;52.352;4.808;2024-02-21T03:17:01;102013.50;;;9.41;95.66
81704;BME280;71117;52.352;4.808;2024-02-21T03:19:27;102011.72;;;9.40;96.09
81704;BME280;71117;52.352;4.808;2024-02-21T03:21:53;101997.75;;;9.42;95.97
81704;BME280;71117;52.352;4.808;2024-02-21T03:24:18;101993.56;;;9.47;96.14
81704;BME280;71117;52.352;4.808;2024-02-21T03:26:44;101991.72;;;9.45;95.76
81704;BME280;71117;52.352;4.808;2024-02-21T03:29:10;101988.94;;;9.42;96.31
81704;BME280;71117;52.352;4.808;2024-02-21T03:31:36;101978.22;;;9.37;96.45
81704;BME280;71117;52.352;4.808;2024-02-21T03:34:02;101973.06;;;9.40;96.31
81704;BME280;71117;52.352;4.808;2024-02-21T03:36:27;101982.72;;;9.40;96.28
81704;BME280;71117;52.352;4.808;2024-02-21T03:38:54;101977.50;;;9.41;96.18
81704;BME280;71117;52.352;4.808;2024-02-21T03:41:19;101979.47;;;9.47;96.46
81704;BME280;71117;52.352;4.808;2024-02-21T03:43:44;101979.25;;;9.41;95.97
81704;BME280;71117;52.352;4.808;2024-02-21T03:46:10;101972.16;;;9.40;96.20
81704;BME280;71117;52.352;4.808;2024-02-21T03:48:35;101961.75;;;9.43;96.08
81704;BME280;71117;52.352;4.808;2024-02-21T03:51:01;101964.22;;;9.38;95.75
81704;BME280;71117;52.352;4.808;2024-02-21T03:53:27;101964.41;;;9.43;96.18
81704;BME280;71117;52.352;4.808;2024-02-21T03:55:53;101957.44;;;9.45;95.82
81704;BME280;71117;52.352;4.808;2024-02-21T03:58:19;101965.34;;;9.45;95.57
81704;BME280;71117;52.352;4.808;2024-02-21T04:00:45;101948.63;;;9.44;95.22
81704;BME280;71117;52.352;4.808;2024-02-21T04:03:10;101945.41;;;9.51;95.29
81704;BME280;71117;52.352;4.808;2024-02-21T04:05:35;101947.09;;;9.49;94.92
81704;BME280;71117;52.352;4.808;2024-02-21T04:08:07;101937.31;;;9.47;94.93
81704;BME280;71117;52.352;4.808;2024-02-21T04:10:33;101942.47;;;9.44;95.27
81704;BME280;71117;52.352;4.808;2024-02-21T04:12:58;101938.19;;;9.47;95.57
81704;BME280;71117;52.352;4.808;2024-02-21T04:15:23;101954.91;;;9.48;94.91
81704;BME280;71117;52.352;4.808;2024-02-21T04:17:49;101953.91;;;9.44;94.91
81704;BME280;71117;52.352;4.808;2024-02-21T04:20:15;101954.66;;;9.42;95.12
81704;BME280;71117;52.352;4.808;2024-02-21T04:22:45;101955.84;;;9.48;95.28
81704;BME280;71117;52.352;4.808;2024-02-21T04:25:10;101945.28;;;9.48;95.04
81704;BME280;71117;52.352;4.808;2024-02-21T04:27:36;101947.84;;;9.47;94.48
81704;BME280;71117;52.352;4.808;2024-02-21T04:30:02;101944.50;;;9.51;94.65
81704;BME280;71117;52.352;4.808;2024-02-21T04:32:28;101936.63;;;9.52;95.07
81704;BME280;71117;52.352;4.808;2024-02-21T04:34:53;101921.72;;;9.53;94.89
81704;BME280;71117;52.352;4.808;2024-02-21T04:37:18;101916.53;;;9.54;94.24
81704;BME280;71117;52.352;4.808;2024-02-21T04:39:44;101919.94;;;9.52;94.04
81704;BME280;71117;52.352;4.808;2024-02-21T04:42:09;101918.13;;;9.51;94.67
81704;BME280;71117;52.352;4.808;2024-02-21T04:44:34;101921.72;;;9.53;94.03
81704;BME280;71117;52.352;4.808;2024-02-21T04:47:00;101913.75;;;9.51;94.46
81704;BME280;71117;52.352;4.808;2024-02-21T04:49:26;101908.47;;;9.51;94.27
81704;BME280;71117;52.352;4.808;2024-02-21T04:51:51;101917.28;;;9.52;93.95
81704;BME280;71117;52.352;4.808;2024-02-21T04:54:16;101910.19;;;9.49;93.98
81704;BME280;71117;52.352;4.808;2024-02-21T04:56:42;101904.06;;;9.50;94.44
81704;BME280;71117;52.352;4.808;2024-02-21T04:59:07;101904.94;;;9.51;93.71
81704;BME280;71117;52.352;4.808;2024-02-21T05:01:32;101900.53;;;9.50;93.66
81704;BME280;71117;52.352;4.808;2024-02-21T05:03:58;101899.44;;;9.45;93.95
81704;BME280;71117;52.352;4.808;2024-02-21T05:06:23;101898.78;;;9.50;94.13
81704;BME280;71117;52.352;4.808;2024-02-21T05:08:48;101894.59;;;9.56;93.79
81704;BME280;71117;52.352;4.808;2024-02-21T05:11:14;101883.81;;;9.49;94.05
81704;BME280;71117;52.352;4.808;2024-02-21T05:13:39;101895.44;;;9.54;93.95
81704;BME280;71117;52.352;4.808;2024-02-21T05:16:05;101882.16;;;9.53;93.54
81704;BME280;71117;52.352;4.808;2024-02-21T05:18:31;101877.75;;;9.52;94.04
81704;BME280;71117;52.352;4.808;2024-02-21T05:20:56;101871.53;;;9.50;94.29
81704;BME280;71117;52.352;4.808;2024-02-21T05:23:22;101869.78;;;9.50;93.58
81704;BME280;71117;52.352;4.808;2024-02-21T05:25:47;101863.56;;;9.48;94.15
81704;BME280;71117;52.352;4.808;2024-02-21T05:28:12;101859.91;;;9.45;93.72
81704;BME280;71117;52.352;4.808;2024-02-21T05:30:38;101846.81;;;9.48;94.24
81704;BME280;71117;52.352;4.808;2024-02-21T05:33:06;101838.59;;;9.39;94.43
81704;BME280;71117;52.352;4.808;2024-02-21T05:35:32;101840.31;;;9.38;93.64
81704;BME280;71117;52.352;4.808;2024-02-21T05:37:58;101828.66;;;9.32;94.33
81704;BME280;71117;52.352;4.808;2024-02-21T05:40:24;101823.25;;;9.28;93.83
81704;BME280;71117;52.352;4.808;2024-02-21T05:42:50;101826.81;;;9.31;93.53
81704;BME280;71117;52.352;4.808;2024-02-21T05:45:17;101814.72;;;9.36;93.65
81704;BME280;71117;52.352;4.808;2024-02-21T05:47:42;101812.00;;;9.33;94.04
81704;BME280;71117;52.352;4.808;2024-02-21T05:50:08;101805.97;;;9.37;93.49
81704;BME280;71117;52.352;4.808;2024-02-21T05:52:33;101799.56;;;9.30;93.64
81704;BME280;71117;52.352;4.808;2024-02-21T05:54:59;101791.81;;;9.33;93.57
81704;BME280;71117;52.352;4.808;2024-02-21T05:57:24;101800.66;;;9.35;93.38
81704;BME280;71117;52.352;4.808;2024-02-21T05:59:49;101803.41;;;9.38;92.70
81704;BME280;71117;52.352;4.808;2024-02-21T06:02:15;101801.72;;;9.40;93.53
81704;BME280;71117;52.352;4.808;2024-02-21T06:04:40;101797.16;;;9.36;93.11
81704;BME280;71117;52.352;4.808;2024-02-21T06:07:05;101792.69;;;9.34;93.70
81704;BME280;71117;52.352;4.808;2024-02-21T06:09:31;101800.38;;;9.27;94.01
81704;BME280;71117;52.352;4.808;2024-02-21T06:11:57;101801.31;;;9.30;93.88
81704;BME280;71117;52.352;4.808;2024-02-21T06:14:22;101807.56;;;9.32;93.29
81704;BME280;71117;52.352;4.808;2024-02-21T06:16:47;101802.22;;;9.30;93.09
81704;BME280;71117;52.352;4.808;2024-02-21T06:19:13;101800.38;;;9.27;93.17
81704;BME280;71117;52.352;4.808;2024-02-21T06:21:38;101808.47;;;9.32;93.24
81704;BME280;71117;52.352;4.808;2024-02-21T06:24:04;101813.59;;;9.29;92.98
81704;BME280;71117;52.352;4.808;2024-02-21T06:26:29;101825.03;;;9.30;93.44
81704;BME280;71117;52.352;4.808;2024-02-21T06:28:54;101822.22;;;9.25;93.06
81704;BME280;71117;52.352;4.808;2024-02-21T06:31:20;101828.56;;;9.30;93.28
81704;BME280;71117;52.352;4.808;2024-02-21T06:33:45;101825.00;;;9.28;92.61
81704;BME280;71117;52.352;4.808;2024-02-21T06:36:10;101826.78;;;9.29;92.68
81704;BME280;71117;52.352;4.808;2024-02-21T06:38:35;101823.13;;;9.25;92.94
81704;BME280;71117;52.352;4.808;2024-02-21T06:41:01;101801.00;;;9.20;92.97
81704;BME280;71117;52.352;4.808;2024-02-21T06:43:27;101804.75;;;9.27;92.83
81704;BME280;71117;52.352;4.808;2024-02-21T06:45:53;101814.41;;;9.26;92.98
81704;BME280;71117;52.352;4.808;2024-02-21T06:48:19;101807.31;;;9.25;92.68
81704;BME280;71117;52.352;4.808;2024-02-21T06:50:45;101793.31;;;9.26;92.43
81704;BME280;71117;52.352;4.808;2024-02-21T06:53:12;101805.41;;;9.21;92.10
81704;BME280;71117;52.352;4.808;2024-02-21T06:55:37;101785.09;;;9.19;92.84
81704;BME280;71117;52.352;4.808;2024-02-21T06:58:03;101787.72;;;9.19;92.46
81704;BME280;71117;52.352;4.808;2024-02-21T07:00:29;101781.88;;;9.26;92.03
81704;BME280;71117;52.352;4.808;2024-02-21T07:02:55;101783.53;;;9.24;92.15
81704;BME280;71117;52.352;4.808;2024-02-21T07:05:20;101773.03;;;9.25;92.46
81704;BME280;71117;52.352;4.808;2024-02-21T07:07:46;101768.53;;;9.21;92.51
81704;BME280;71117;52.352;4.808;2024-02-21T07:10:11;101773.13;;;9.27;92.12
81704;BME280;71117;52.352;4.808;2024-02-21T07:12:37;101764.25;;;9.25;91.85
81704;BME280;71117;52.352;4.808;2024-02-21T07:15:07;101761.59;;;9.25;92.50
81704;BME280;71117;52.352;4.808;2024-02-21T07:17:32;101763.44;;;9.26;92.03
81704;BME280;71117;52.352;4.808;2024-02-21T07:19:57;101758.22;;;9.27;91.87
81704;BME280;71117;52.352;4.808;2024-02-21T07:22:26;101753.13;;;9.32;91.87
81704;BME280;71117;52.352;4.808;2024-02-21T07:24:51;101753.16;;;9.34;91.87
81704;BME280;71117;52.352;4.808;2024-02-21T07:27:16;101746.88;;;9.30;91.62
81704;BME280;71117;52.352;4.808;2024-02-21T07:29:42;101734.59;;;9.31;91.58
81704;BME280;71117;52.352;4.808;2024-02-21T07:32:07;101734.72;;;9.34;91.92
81704;BME280;71117;52.352;4.808;2024-02-21T07:34:33;101732.06;;;9.34;91.85
81704;BME280;71117;52.352;4.808;2024-02-21T07:36:58;101726.81;;;9.34;91.85
81704;BME280;71117;52.352;4.808;2024-02-21T07:39:23;101717.22;;;9.36;91.90
81704;BME280;71117;52.352;4.808;2024-02-21T07:41:49;101712.78;;;9.35;91.71
81704;BME280;71117;52.352;4.808;2024-02-21T07:44:15;101710.88;;;9.31;92.15
81704;BME280;71117;52.352;4.808;2024-02-21T07:46:40;101708.22;;;9.31;91.94
81704;BME280;71117;52.352;4.808;2024-02-21T07:49:06;101710.09;;;9.33;91.92
81704;BME280;71117;52.352;4.808;2024-02-21T07:51:31;101720.69;;;9.35;91.75
81704;BME280;71117;52.352;4.808;2024-02-21T07:53:56;101720.22;;;9.46;91.62
81704;BME280;71117;52.352;4.808;2024-02-21T07:56:22;101716.47;;;9.40;91.54
81704;BME280;71117;52.352;4.808;2024-02-21T07:58:47;101711.25;;;9.41;91.06
81704;BME280;71117;52.352;4.808;2024-02-21T08:01:20;101714.88;;;9.43;91.46
81704;BME280;71117;52.352;4.808;2024-02-21T08:03:46;101708.13;;;9.51;90.93
81704;BME280;71117;52.352;4.808;2024-02-21T08:06:13;101702.81;;;9.50;91.27
81704;BME280;71117;52.352;4.808;2024-02-21T08:08:39;101707.94;;;9.47;91.40
81704;BME280;71117;52.352;4.808;2024-02-21T08:11:04;101704.47;;;9.48;90.98
81704;BME280;71117;52.352;4.808;2024-02-21T08:13:30;101703.75;;;9.52;90.63
81704;BME280;71117;52.352;4.808;2024-02-21T08:15:55;101707.09;;;9.48;91.18
81704;BME280;71117;52.352;4.808;2024-02-21T08:18:22;101693.16;;;9.50;90.59
81704;BME280;71117;52.352;4.808;2024-02-21T08:20:47;101684.22;;;9.47;90.85
81704;BME280;71117;52.352;4.808;2024-02-21T08:23:16;101685.41;;;9.55;91.17
81704;BME280;71117;52.352;4.808;2024-02-21T08:25:41;101680.91;;;9.52;91.03
81704;BME280;71117;52.352;4.808;2024-02-21T08:28:06;101670.31;;;9.51;89.94
81704;BME280;71117;52.352;4.808;2024-02-21T08:30:33;101672.31;;;9.58;89.94
81704;BME280;71117;52.352;4.808;2024-02-21T08:32:58;101659.25;;;9.61;89.82
81704;BME280;71117;52.352;4.808;2024-02-21T08:35:23;101655.06;;;9.68;89.39
81704;BME280;71117;52.352;4.808;2024-02-21T08:37:49;101653.13;;;9.62;89.18
81704;BME280;71117;52.352;4.808;2024-02-21T08:40:15;101658.41;;;9.62;89.62
81704;BME280;71117;52.352;4.808;2024-02-21T08:42:43;101655.72;;;9.61;89.78
81704;BME280;71117;52.352;4.808;2024-02-21T08:45:08;101652.19;;;9.60;90.08
81704;BME280;71117;52.352;4.808;2024-02-21T08:47:34;101657.56;;;9.63;90.25
81704;BME280;71117;52.352;4.808;2024-02-21T08:50:03;101651.38;;;9.63;90.07
81704;BME280;71117;52.352;4.808;2024-02-21T08:52:29;101651.34;;;9.61;89.49
81704;BME280;71117;52.352;4.808;2024-02-21T08:54:54;101649.66;;;9.63;89.18
81704;BME280;71117;52.352;4.808;2024-02-21T08:57:20;101648.94;;;9.69;89.77
81704;BME280;71117;52.352;4.808;2024-02-21T08:59:45;101645.09;;;9.85;89.37
81704;BME280;71117;52.352;4.808;2024-02-21T09:02:12;101632.44;;;9.74;89.26
81704;BME280;71117;52.352;4.808;2024-02-21T09:04:38;101631.47;;;9.71;89.50
81704;BME280;71117;52.352;4.808;2024-02-21T09:07:03;101619.88;;;9.66;89.49
81704;BME280;71117;52.352;4.808;2024-02-21T09:09:31;101622.50;;;9.66;89.04
81704;BME280;71117;52.352;4.808;2024-02-21T09:11:58;101617.34;;;9.70;89.36
81704;BME280;71117;52.352;4.808;2024-02-21T09:14:30;101612.06;;;9.70;89.13
81704;BME280;71117;52.352;4.808;2024-02-21T09:16:55;101601.66;;;9.73;88.57
81704;BME280;71117;52.352;4.808;2024-02-21T09:19:21;101599.16;;;9.78;89.30
81704;BME280;71117;52.352;4.808;2024-02-21T09:21:49;101580.31;;;9.66;89.52
81704;BME280;71117;52.352;4.808;2024-02-21T09:24:15;101595.25;;;9.65;89.41
81704;BME280;71117;52.352;4.808;2024-02-21T09:26:40;101589.88;;;9.64;89.71
81704;BME280;71117;52.352;4.808;2024-02-21T09:29:05;101579.09;;;9.56;89.42
81704;BME280;71117;52.352;4.808;2024-02-21T09:31:31;101575.44;;;9.78;88.95
81704;BME280;71117;52.352;4.808;2024-02-21T09:33:59;101556.50;;;9.91;87.99
81704;BME280;71117;52.352;4.808;2024-02-21T09:36:24;101551.22;;;9.91;87.96
81704;BME280;71117;52.352;4.808;2024-02-21T09:38:49;101555.56;;;9.89;87.72
81704;BME280;71117;52.352;4.808;2024-02-21T09:41:17;101548.25;;;10.09;87.02
81704;BME280;71117;52.352;4.808;2024-02-21T09:43:43;101532.91;;;9.96;87.04
81704;BME280;71117;52.352;4.808;2024-02-21T09:46:16;101539.19;;;9.99;87.25
81704;BME280;71117;52.352;4.808;2024-02-21T09:48:58;101526.03;;;10.01;87.24
81704;BME280;71117;52.352;4.808;2024-02-21T09:51:30;101509.06;;;9.93;87.72
81704;BME280;71117;52.352;4.808;2024-02-21T09:53:58;101508.88;;;9.87;86.91
81704;BME280;71117;52.352;4.808;2024-02-21T09:56:27;101499.50;;;9.96;87.21
81704;BME280;71117;52.352;4.808;2024-02-21T09:58:52;101501.81;;;9.86;86.20
81704;BME280;71117;52.352;4.808;2024-02-21T10:01:17;101501.09;;;9.91;87.20
81704;BME280;71117;52.352;4.808;2024-02-21T10:03:43;101500.34;;;9.95;87.15
81704;BME280;71117;52.352;4.808;2024-02-21T10:06:09;101497.31;;;10.10;86.71
81704;BME280;71117;52.352;4.808;2024-02-21T10:08:34;101487.50;;;10.06;86.01
81704;BME280;71117;52.352;4.808;2024-02-21T10:10:59;101478.16;;;10.17;85.57
81704;BME280;71117;52.352;4.808;2024-02-21T10:13:28;101475.47;;;10.16;85.66
81704;BME280;71117;52.352;4.808;2024-02-21T10:16:20;101468.63;;;10.22;85.56
81704;BME280;71117;52.352;4.808;2024-02-21T10:18:45;101460.56;;;10.18;84.59
81704;BME280;71117;52.352;4.808;2024-02-21T10:21:10;101448.81;;;10.06;84.86
81704;BME280;71117;52.352;4.808;2024-02-21T10:23:46;101442.63;;;10.06;85.60
81704;BME280;71117;52.352;4.808;2024-02-21T10:26:13;101446.44;;;10.16;84.87
81704;BME280;71117;52.352;4.808;2024-02-21T10:28:39;101449.69;;;10.07;84.98
81704;BME280;71117;52.352;4.808;2024-02-21T10:31:08;101433.03;;;10.10;84.80
81704;BME280;71117;52.352;4.808;2024-02-21T10:33:37;101426.84;;;10.07;85.27
81704;BME280;71117;52.352;4.808;2024-02-21T10:36:10;101429.94;;;10.23;85.18
81704;BME280;71117;52.352;4.808;2024-02-21T10:38:39;101410.78;;;10.28;84.12
81704;BME280;71117;52.352;4.808;2024-02-21T10:41:05;101402.66;;;10.22;85.01
81704;BME280;71117;52.352;4.808;2024-02-21T10:43:38;101404.50;;;10.25;84.27
81704;BME280;71117;52.352;4.808;2024-02-21T10:46:05;101402.75;;;10.25;83.91
81704;BME280;71117;52.352;4.808;2024-02-21T10:48:41;101404.72;;;10.32;83.82
81704;BME280;71117;52.352;4.808;2024-02-21T10:51:15;101396.69;;;10.28;84.32
81704;BME280;71117;52.352;4.808;2024-02-21T10:56:39;101409.16;;;10.33;84.44
81704;BME280;71117;52.352;4.808;2024-02-21T10:59:07;101412.25;;;10.20;85.16
81704;BME280;71117;52.352;4.808;2024-02-21T11:01:33;101412.91;;;10.12;85.29
81704;BME280;71117;52.352;4.808;2024-02-21T11:04:05;101409.06;;;10.00;85.79
81704;BME280;71117;52.352;4.808;2024-02-21T11:06:32;101405.38;;;9.95;86.43
81704;BME280;71117;52.352;4.808;2024-02-21T11:09:09;101405.28;;;9.92;86.16
81704;BME280;71117;52.352;4.808;2024-02-21T11:11:35;101404.06;;;9.81;86.40
81704;BME280;71117;52.352;4.808;2024-02-21T11:14:08;101392.81;;;9.87;86.73
81704;BME280;71117;52.352;4.808;2024-02-21T11:16:38;101389.47;;;9.92;86.44
81704;BME280;71117;52.352;4.808;2024-02-21T11:19:23;101369.44;;;9.99;86.13
81704;BME280;71117;52.352;4.808;2024-02-21T11:21:51;101377.22;;;9.94;85.02
81704;BME280;71117;52.352;4.808;2024-02-21T11:24:27;101357.75;;;9.91;85.21
81704;BME280;71117;52.352;4.808;2024-02-21T11:27:16;101350.72;;;9.90;85.17
81704;BME280;71117;52.352;4.808;2024-02-21T11:29:49;101328.19;;;10.02;86.12
81704;BME280;71117;52.352;4.808;2024-02-21T11:32:19;101330.09;;;10.08;84.81
81704;BME280;71117;52.352;4.808;2024-02-21T11:34:59;101326.91;;;10.20;84.06
81704;BME280;71117;52.352;4.808;2024-02-21T11:37:34;101320.66;;;10.16;84.44
81704;BME280;71117;52.352;4.808;2024-02-21T11:40:03;101315.47;;;10.19;83.32
81704;BME280;71117;52.352;4.808;2024-02-21T11:42:30;101302.69;;;10.33;83.68
81704;BME280;71117;52.352;4.808;2024-02-21T11:44:56;101298.16;;;10.29;83.22
81704;BME280;71117;52.352;4.808;2024-02-21T11:47:22;101282.22;;;10.26;83.83
81704;BME280;71117;52.352;4.808;2024-02-21T11:49:49;101276.28;;;10.33;83.40
81704;BME280;71117;52.352;4.808;2024-02-21T11:52:18;101260.81;;;10.48;82.45
81704;BME280;71117;52.352;4.808;2024-02-21T11:54:45;101256.78;;;10.64;81.38
81704;BME280;71117;52.352;4.808;2024-02-21T11:57:11;101237.88;;;10.83;81.00
81704;BME280;71117;52.352;4.808;2024-02-21T11:59:36;101225.84;;;10.98;80.33
81704;BME280;71117;52.352;4.808;2024-02-21T12:02:04;101224.81;;;10.90;79.45
81704;BME280;71117;52.352;4.808;2024-02-21T12:04:29;101231.91;;;10.92;80.35
81704;BME280;71117;52.352;4.808;2024-02-21T12:06:58;101236.41;;;10.96;79.68
81704;BME280;71117;52.352;4.808;2024-02-21T12:09:26;101222.97;;;10.87;78.10
81704;BME280;71117;52.352;4.808;2024-02-21T12:12:04;101190.59;;;10.96;77.25
81704;BME280;71117;52.352;4.808;2024-02-21T12:14:32;101194.09;;;10.95;78.08
81704;BME280;71117;52.352;4.808;2024-02-21T12:17:01;101181.84;;;11.00;77.89
81704;BME280;71117;52.352;4.808;2024-02-21T12:19:29;101172.63;;;11.22;78.17
81704;BME280;71117;52.352;4.808;2024-02-21T12:21:55;101178.53;;;11.08;78.07
81704;BME280;71117;52.352;4.808;2024-02-21T12:24:25;101180.84;;;10.93;78.65
81704;BME280;71117;52.352;4.808;2024-02-21T12:26:54;101164.13;;;10.94;78.41
81704;BME280;71117;52.352;4.808;2024-02-21T12:29:20;101161.19;;;10.80;77.57
81704;BME280;71117;52.352;4.808;2024-02-21T12:31:46;101152.19;;;10.71;78.20
81704;BME280;71117;52.352;4.808;2024-02-21T12:34:12;101137.22;;;10.71;78.80
81704;BME280;71117;52.352;4.808;2024-02-21T12:36:41;101134.63;;;10.73;78.97
81704;BME280;71117;52.352;4.808;2024-02-21T12:39:11;101116.06;;;10.70;78.06
81704;BME280;71117;52.352;4.808;2024-02-21T12:41:37;101120.66;;;10.78;77.17
81704;BME280;71117;52.352;4.808;2024-02-21T12:44:09;101103.09;;;10.80;76.56
81704;BME280;71117;52.352;4.808;2024-02-21T12:46:36;101097.69;;;10.74;77.95
81704;BME280;71117;52.352;4.808;2024-02-21T12:49:02;101087.84;;;10.67;77.77
81704;BME280;71117;52.352;4.808;2024-02-21T12:51:29;101090.50;;;10.67;77.34
81704;BME280;71117;52.352;4.808;2024-02-21T12:53:54;101081.47;;;10.57;78.14
81704;BME280;71117;52.352;4.808;2024-02-21T12:56:20;101115.50;;;10.44;77.45
81704;BME280;71117;52.352;4.808;2024-02-21T12:58:45;101082.03;;;10.43;78.30